BAW819K EKCH-EGLL
Flight info
| Callsign | BAW819K |
|---|---|
| Flight time | N/A |
| Altitude | 34000 |
| Route | LANGO DCT RAXLU DCT JUIST DCT ABNED L980 LOGAN |
| Aircraft | A320/M-SDE3FGHIRWY/LB1 |
Departure
| Time | 2026-05-07 14:14 |
|---|---|
| Airport | Copenhagen Kastrup Airport (EKCH) |
Arrival
| Time | N/A |
|---|---|
| Airport | London Heathrow Airport (EGLL) |
| Time | Latitude | Longitude | Altitude | Speed | Heading |
|---|---|---|---|---|---|
| 2026-05-07 13:44 | 55.62695 | 12.65088 | 17 ft | 0 kts | 289° |
| 2026-05-07 14:01 | 55.62695 | 12.65089 | 17 ft | 1 kts | 289° |
| 2026-05-07 14:02 | 55.62688 | 12.65127 | 19 ft | 4 kts | 289° |
| 2026-05-07 14:02 | 55.62680 | 12.65163 | 18 ft | 4 kts | 302° |
| 2026-05-07 14:02 | 55.62661 | 12.65189 | 21 ft | 4 kts | 353° |
| 2026-05-07 14:02 | 55.62637 | 12.65192 | 20 ft | 4 kts | 357° |
| 2026-05-07 14:03 | 55.62610 | 12.65194 | 18 ft | 4 kts | 358° |
| 2026-05-07 14:03 | 55.62598 | 12.65195 | 21 ft | 0 kts | 359° |
| 2026-05-07 14:05 | 55.62606 | 12.65195 | 18 ft | 3 kts | 359° |
| 2026-05-07 14:05 | 55.62632 | 12.65204 | 19 ft | 5 kts | 23° |
| 2026-05-07 14:05 | 55.62652 | 12.65270 | 17 ft | 7 kts | 92° |
| 2026-05-07 14:05 | 55.62616 | 12.65322 | 17 ft | 7 kts | 178° |
| 2026-05-07 14:06 | 55.62562 | 12.65323 | 17 ft | 8 kts | 179° |
| 2026-05-07 14:06 | 55.62505 | 12.65325 | 17 ft | 9 kts | 178° |
| 2026-05-07 14:06 | 55.62447 | 12.65305 | 17 ft | 9 kts | 225° |
| 2026-05-07 14:06 | 55.62417 | 12.65208 | 18 ft | 8 kts | 210° |
| 2026-05-07 14:07 | 55.62353 | 12.65205 | 17 ft | 10 kts | 179° |
| 2026-05-07 14:07 | 55.62273 | 12.65199 | 17 ft | 13 kts | 182° |
| 2026-05-07 14:07 | 55.62197 | 12.65168 | 17 ft | 11 kts | 211° |
| 2026-05-07 14:07 | 55.62146 | 12.65109 | 18 ft | 9 kts | 213° |
| 2026-05-07 14:08 | 55.62081 | 12.65035 | 18 ft | 13 kts | 213° |
| 2026-05-07 14:08 | 55.61994 | 12.64933 | 19 ft | 16 kts | 213° |
| 2026-05-07 14:08 | 55.61889 | 12.64813 | 17 ft | 19 kts | 213° |
| 2026-05-07 14:08 | 55.61771 | 12.64678 | 18 ft | 22 kts | 213° |
| 2026-05-07 14:09 | 55.61638 | 12.64524 | 20 ft | 24 kts | 213° |
| 2026-05-07 14:09 | 55.61491 | 12.64355 | 17 ft | 26 kts | 213° |
| 2026-05-07 14:09 | 55.61330 | 12.64170 | 17 ft | 29 kts | 213° |
| 2026-05-07 14:09 | 55.61170 | 12.63986 | 18 ft | 28 kts | 213° |
| 2026-05-07 14:10 | 55.61004 | 12.63795 | 17 ft | 29 kts | 213° |
| 2026-05-07 14:10 | 55.60838 | 12.63605 | 17 ft | 27 kts | 213° |
| 2026-05-07 14:10 | 55.60692 | 12.63437 | 17 ft | 20 kts | 213° |
| 2026-05-07 14:10 | 55.60588 | 12.63291 | 17 ft | 19 kts | 222° |
| 2026-05-07 14:11 | 55.60513 | 12.63203 | 17 ft | 11 kts | 180° |
| 2026-05-07 14:11 | 55.60456 | 12.63279 | 17 ft | 11 kts | 131° |
| 2026-05-07 14:11 | 55.60406 | 12.63380 | 18 ft | 8 kts | 131° |
| 2026-05-07 14:11 | 55.60391 | 12.63434 | 18 ft | 2 kts | 68° |
| 2026-05-07 14:12 | 55.60398 | 12.63442 | 18 ft | 0 kts | 40° |
| 2026-05-07 14:13 | 55.60407 | 12.63455 | 19 ft | 8 kts | 41° |
| 2026-05-07 14:13 | 55.60604 | 12.63756 | 18 ft | 73 kts | 41° |
| 2026-05-07 14:14 | 55.61142 | 12.64592 | 18 ft | 129 kts | 41° |
| 2026-05-07 14:14 | 55.61924 | 12.65794 | 199 ft | 158 kts | 39° |
| 2026-05-07 14:14 | 55.62745 | 12.67064 | 919 ft | 157 kts | 39° |
| 2026-05-07 14:14 | 55.63590 | 12.68376 | 1532 ft | 170 kts | 39° |
| 2026-05-07 14:15 | 55.64528 | 12.69823 | 1952 ft | 188 kts | 39° |
| 2026-05-07 14:15 | 55.65568 | 12.71442 | 2293 ft | 211 kts | 39° |
| 2026-05-07 14:15 | 55.66755 | 12.73230 | 2722 ft | 236 kts | 38° |
| 2026-05-07 14:15 | 55.68057 | 12.75172 | 3401 ft | 250 kts | 39° |
| 2026-05-07 14:16 | 55.69174 | 12.77525 | 4298 ft | 259 kts | 60° |
| 2026-05-07 14:16 | 55.69711 | 12.80644 | 5239 ft | 266 kts | 83° |
| 2026-05-07 14:16 | 55.69517 | 12.83927 | 6196 ft | 272 kts | 107° |
| 2026-05-07 14:16 | 55.68595 | 12.86813 | 7112 ft | 277 kts | 130° |
| 2026-05-07 14:17 | 55.67042 | 12.88862 | 7972 ft | 284 kts | 155° |
| 2026-05-07 14:17 | 55.65180 | 12.90071 | 8889 ft | 287 kts | 159° |
| 2026-05-07 14:17 | 55.63248 | 12.91023 | 9771 ft | 291 kts | 171° |
| 2026-05-07 14:17 | 55.61195 | 12.91015 | 10413 ft | 305 kts | 188° |
| 2026-05-07 14:18 | 55.59105 | 12.89861 | 10692 ft | 327 kts | 207° |
| 2026-05-07 14:18 | 55.57240 | 12.87495 | 11262 ft | 335 kts | 225° |
| 2026-05-07 14:18 | 55.55624 | 12.84500 | 12029 ft | 338 kts | 226° |
| 2026-05-07 14:18 | 55.54141 | 12.81282 | 12817 ft | 339 kts | 240° |
| 2026-05-07 14:19 | 55.53191 | 12.77460 | 13610 ft | 341 kts | 249° |
| 2026-05-07 14:19 | 55.52196 | 12.73665 | 14338 ft | 342 kts | 243° |
| 2026-05-07 14:19 | 55.51099 | 12.69919 | 15024 ft | 344 kts | 243° |
| 2026-05-07 14:19 | 55.49990 | 12.66155 | 15669 ft | 347 kts | 243° |
| 2026-05-07 14:20 | 55.48872 | 12.62368 | 16300 ft | 350 kts | 243° |
| 2026-05-07 14:20 | 55.47739 | 12.58548 | 16938 ft | 353 kts | 243° |
| 2026-05-07 14:20 | 55.46592 | 12.54702 | 17580 ft | 356 kts | 243° |
| 2026-05-07 14:20 | 55.45434 | 12.50829 | 18240 ft | 359 kts | 243° |
| 2026-05-07 14:21 | 55.44266 | 12.46925 | 18821 ft | 362 kts | 243° |
| 2026-05-07 14:21 | 55.43091 | 12.42994 | 19398 ft | 364 kts | 243° |
| 2026-05-07 14:21 | 55.41903 | 12.39026 | 19963 ft | 367 kts | 243° |
| 2026-05-07 14:21 | 55.40708 | 12.35034 | 20524 ft | 370 kts | 243° |
| 2026-05-07 14:22 | 55.39504 | 12.31013 | 21075 ft | 373 kts | 243° |
| 2026-05-07 14:22 | 55.38300 | 12.27005 | 21598 ft | 376 kts | 243° |
| 2026-05-07 14:22 | 55.37070 | 12.22925 | 22104 ft | 379 kts | 243° |
| 2026-05-07 14:22 | 55.35828 | 12.18820 | 22611 ft | 382 kts | 243° |
| 2026-05-07 14:23 | 55.34573 | 12.14677 | 23121 ft | 385 kts | 243° |
| 2026-05-07 14:23 | 55.33309 | 12.10506 | 23630 ft | 388 kts | 243° |
| 2026-05-07 14:23 | 55.32035 | 12.06302 | 24053 ft | 391 kts | 243° |
| 2026-05-07 14:23 | 55.30752 | 12.02065 | 24454 ft | 395 kts | 243° |
| 2026-05-07 14:24 | 55.29459 | 11.97804 | 24860 ft | 398 kts | 242° |
| 2026-05-07 14:24 | 55.28150 | 11.93504 | 25260 ft | 401 kts | 242° |
| 2026-05-07 14:24 | 55.26830 | 11.89182 | 25671 ft | 404 kts | 242° |
| 2026-05-07 14:24 | 55.25493 | 11.84820 | 26072 ft | 407 kts | 242° |
| 2026-05-07 14:25 | 55.24147 | 11.80445 | 26467 ft | 410 kts | 242° |
| 2026-05-07 14:25 | 55.22788 | 11.76030 | 26855 ft | 413 kts | 242° |
| 2026-05-07 14:25 | 55.21438 | 11.71647 | 27222 ft | 416 kts | 242° |
| 2026-05-07 14:25 | 55.20056 | 11.67168 | 27594 ft | 420 kts | 242° |
| 2026-05-07 14:26 | 55.18666 | 11.62659 | 27960 ft | 423 kts | 242° |
| 2026-05-07 14:26 | 55.17266 | 11.58115 | 28341 ft | 426 kts | 242° |
| 2026-05-07 14:26 | 55.15855 | 11.53538 | 28706 ft | 429 kts | 242° |
| 2026-05-07 14:26 | 55.14435 | 11.48933 | 29080 ft | 431 kts | 242° |
| 2026-05-07 14:27 | 55.13002 | 11.44305 | 29463 ft | 434 kts | 242° |
| 2026-05-07 14:27 | 55.11557 | 11.39654 | 29843 ft | 437 kts | 242° |
| 2026-05-07 14:27 | 55.10103 | 11.34983 | 30209 ft | 440 kts | 242° |
| 2026-05-07 14:27 | 55.08632 | 11.30270 | 30519 ft | 443 kts | 242° |
| 2026-05-07 14:28 | 55.07151 | 11.25544 | 30840 ft | 445 kts | 242° |
| 2026-05-07 14:28 | 55.05658 | 11.20785 | 31161 ft | 448 kts | 242° |
| 2026-05-07 14:28 | 55.04160 | 11.16015 | 31531 ft | 449 kts | 242° |
| 2026-05-07 14:28 | 55.02658 | 11.11248 | 31993 ft | 448 kts | 242° |
| 2026-05-07 14:29 | 55.01162 | 11.06496 | 32446 ft | 447 kts | 242° |
| 2026-05-07 14:29 | 54.99664 | 11.01750 | 32885 ft | 447 kts | 242° |
| 2026-05-07 14:29 | 54.98184 | 10.97067 | 33319 ft | 447 kts | 242° |
| 2026-05-07 14:29 | 54.96684 | 10.92334 | 33757 ft | 447 kts | 242° |
| 2026-05-07 14:30 | 54.95178 | 10.87603 | 34067 ft | 447 kts | 242° |
| 2026-05-07 14:30 | 54.91819 | 10.78637 | 34116 ft | 439 kts | 236° |
| 2026-05-07 14:31 | 54.88383 | 10.69868 | 34122 ft | 438 kts | 236° |
| 2026-05-07 14:31 | 54.84949 | 10.61136 | 34119 ft | 438 kts | 236° |
| 2026-05-07 14:32 | 54.81508 | 10.52421 | 34112 ft | 438 kts | 236° |
| 2026-05-07 14:32 | 54.78062 | 10.43724 | 34118 ft | 438 kts | 236° |
| 2026-05-07 14:33 | 54.74609 | 10.35040 | 34122 ft | 438 kts | 236° |